createdAt,value
2018-09-03T00:00:31.541Z,36.53
2018-09-03T00:02:58.706Z,32.93
2018-09-03T00:05:25.880Z,36.17
2018-09-03T00:07:53.039Z,39.63
2018-09-03T00:10:20.182Z,33.20
2018-09-03T00:12:47.288Z,35.90
2018-09-03T00:15:14.424Z,32.97
2018-09-03T00:17:41.559Z,36.93
2018-09-03T00:20:08.713Z,36.50
2018-09-03T00:22:35.851Z,35.53
2018-09-03T00:25:03.039Z,37.37
2018-09-03T00:27:30.198Z,42.90
2018-09-03T00:29:57.321Z,38.70
2018-09-03T00:32:30.172Z,39.57
2018-09-03T00:35:03.124Z,33.93
2018-09-03T00:37:35.913Z,33.73
2018-09-03T00:40:08.787Z,38.27
2018-09-03T00:42:41.817Z,34.77
2018-09-03T00:45:14.804Z,35.63
2018-09-03T00:47:41.904Z,34.13
2018-09-03T00:50:09.081Z,34.97
2018-09-03T00:52:36.182Z,35.37
2018-09-03T00:55:03.413Z,41.63
2018-09-03T00:57:30.795Z,34.30
2018-09-03T00:59:57.909Z,38.70
2018-09-03T01:02:25.054Z,40.23
2018-09-03T01:04:52.190Z,36.00
2018-09-03T01:07:19.379Z,40.40
2018-09-03T01:09:46.541Z,43.23
2018-09-03T01:12:13.653Z,34.37
2018-09-03T01:14:40.809Z,36.90
2018-09-03T01:17:07.924Z,38.30
2018-09-03T01:19:35.073Z,35.23
2018-09-03T01:22:02.193Z,31.80
2018-09-03T01:24:29.318Z,32.00
2018-09-03T01:26:56.429Z,36.23
2018-09-03T01:29:23.562Z,33.37
2018-09-03T01:31:54.092Z,36.60
2018-09-03T01:34:21.381Z,36.50
2018-09-03T01:36:48.532Z,37.73
2018-09-03T01:39:15.640Z,34.23
2018-09-03T01:41:42.782Z,37.70
2018-09-03T01:44:09.895Z,35.30
2018-09-03T01:46:37.028Z,38.53
2018-09-03T01:49:04.194Z,37.43
2018-09-03T01:51:31.332Z,35.43
2018-09-03T01:53:58.516Z,37.07
2018-09-03T01:56:25.649Z,38.83
2018-09-03T01:58:53.127Z,38.23
2018-09-03T02:01:20.480Z,37.53
2018-09-03T02:03:47.605Z,39.87
2018-09-03T02:06:14.755Z,42.60
2018-09-03T02:08:41.906Z,34.90
2018-09-03T02:11:09.055Z,40.63
2018-09-03T02:13:36.246Z,41.43
2018-09-03T02:16:03.551Z,36.97
2018-09-03T02:18:30.719Z,36.43
2018-09-03T02:20:57.914Z,42.27
2018-09-03T02:23:25.064Z,37.23
2018-09-03T02:25:52.200Z,36.77
2018-09-03T02:28:19.345Z,37.93
2018-09-03T02:30:46.484Z,36.40
2018-09-03T02:33:13.610Z,43.10
2018-09-03T02:35:40.772Z,38.07
2018-09-03T02:38:08.064Z,39.17
2018-09-03T02:40:35.220Z,37.63
2018-09-03T02:43:02.369Z,31.73
2018-09-03T02:45:29.532Z,38.77
2018-09-03T02:47:56.686Z,37.87
2018-09-03T02:50:23.837Z,39.37
2018-09-03T02:52:51.000Z,37.93
2018-09-03T02:55:18.148Z,42.93
2018-09-03T02:57:45.292Z,36.70
2018-09-03T03:00:12.720Z,40.30
2018-09-03T03:02:39.877Z,38.60
2018-09-03T03:05:07.056Z,38.90
2018-09-03T03:07:34.241Z,35.47
2018-09-03T03:10:01.437Z,35.33
2018-09-03T03:12:28.592Z,39.87
2018-09-03T03:14:56.753Z,39.60
2018-09-03T03:17:24.081Z,33.67
2018-09-03T03:19:51.235Z,40.13
2018-09-03T03:22:18.885Z,37.40
2018-09-03T03:24:46.886Z,37.87
2018-09-03T03:27:14.509Z,38.93
2018-09-03T03:29:41.679Z,38.97
2018-09-03T03:32:08.858Z,39.30
2018-09-03T03:34:36.021Z,42.77
2018-09-03T03:37:03.196Z,37.03
2018-09-03T03:39:30.353Z,44.33
2018-09-03T03:42:00.241Z,41.60
2018-09-03T03:44:27.380Z,41.53
2018-09-03T03:46:54.548Z,42.07
2018-09-03T03:49:21.728Z,44.83
2018-09-03T03:51:48.892Z,39.40
2018-09-03T03:54:16.031Z,44.30
2018-09-03T03:56:43.233Z,42.57
2018-09-03T03:59:10.373Z,46.00
2018-09-03T04:01:37.516Z,46.50
2018-09-03T04:04:04.911Z,45.30
2018-09-03T04:06:32.063Z,50.10
2018-09-03T04:08:59.439Z,46.33
2018-09-03T04:11:26.607Z,48.10
2018-09-03T04:13:53.729Z,47.90
2018-09-03T04:16:20.888Z,48.03
2018-09-03T04:18:48.032Z,44.70
2018-09-03T04:21:15.237Z,44.63
2018-09-03T04:23:42.389Z,38.83
2018-09-03T04:26:09.516Z,45.80
2018-09-03T04:28:36.690Z,45.87
2018-09-03T04:31:04.066Z,48.47
2018-09-03T04:33:31.216Z,49.73
2018-09-03T04:35:58.396Z,45.27
2018-09-03T04:38:25.516Z,41.83
2018-09-03T04:40:52.669Z,44.80
2018-09-03T04:43:19.782Z,43.93
2018-09-03T04:45:46.968Z,50.53
2018-09-03T04:48:14.276Z,56.07
2018-09-03T04:50:41.279Z,49.27
2018-09-03T04:53:08.420Z,52.73
2018-09-03T04:55:35.553Z,48.93
2018-09-03T04:58:02.721Z,57.63
2018-09-03T05:00:29.888Z,60.03
2018-09-03T05:02:57.032Z,62.03
2018-09-03T05:05:24.221Z,66.13
2018-09-03T05:07:51.299Z,60.30
2018-09-03T05:10:18.466Z,65.77
2018-09-03T05:12:45.653Z,62.87
2018-09-03T05:15:12.827Z,65.03
2018-09-03T05:17:39.961Z,51.23
2018-09-03T05:20:07.111Z,50.47
2018-09-03T05:22:34.245Z,47.47
2018-09-03T05:25:01.397Z,46.83
2018-09-03T05:27:28.560Z,46.63
2018-09-03T05:29:55.716Z,44.83
2018-09-03T05:32:22.887Z,44.77
2018-09-03T05:34:50.009Z,38.93
2018-09-03T05:37:17.181Z,36.87
2018-09-03T05:39:44.324Z,37.90
2018-09-03T05:42:11.456Z,42.03
2018-09-03T05:44:38.602Z,39.60
2018-09-03T05:47:05.797Z,40.17
2018-09-03T05:49:33.111Z,34.93
2018-09-03T05:52:00.268Z,38.77
2018-09-03T05:54:27.387Z,33.60
2018-09-03T05:56:54.567Z,34.97
2018-09-03T05:59:21.719Z,34.30
2018-09-03T06:01:48.921Z,35.00
2018-09-03T06:04:16.089Z,32.30
2018-09-03T06:06:43.245Z,33.27
2018-09-03T06:09:11.484Z,32.17
2018-09-03T06:11:38.796Z,36.53
2018-09-03T06:14:05.972Z,33.00
2018-09-03T06:16:33.184Z,33.03
2018-09-03T06:19:00.457Z,28.77
2018-09-03T06:21:27.593Z,33.13
2018-09-03T06:23:54.757Z,29.80
2018-09-03T06:26:21.938Z,32.53
2018-09-03T06:28:49.118Z,31.43
2018-09-03T06:31:16.295Z,30.97
2018-09-03T06:33:43.436Z,27.80
2018-09-03T06:36:10.596Z,32.83
2018-09-03T06:38:37.769Z,36.67
2018-09-03T06:41:05.120Z,31.57
2018-09-03T06:43:32.296Z,31.23
2018-09-03T06:45:59.491Z,32.17
2018-09-03T06:48:26.767Z,31.73
2018-09-03T06:50:53.941Z,30.55
2018-09-03T06:53:21.125Z,30.77
2018-09-03T06:55:48.283Z,33.77
2018-09-03T06:58:15.431Z,32.08
2018-09-03T07:00:42.590Z,34.50
2018-09-03T07:03:09.721Z,30.30
2018-09-03T07:05:36.868Z,30.20
2018-09-03T07:08:04.248Z,31.35
2018-09-03T07:10:31.377Z,28.93
2018-09-03T07:13:01.272Z,25.55
2018-09-03T07:15:28.456Z,27.87
2018-09-03T07:17:55.605Z,30.52
2018-09-03T07:20:23.134Z,29.40
2018-09-03T07:22:50.261Z,28.20
2018-09-03T07:25:17.426Z,32.17
2018-09-03T07:27:44.581Z,27.98
2018-09-03T07:30:11.748Z,27.25
2018-09-03T07:32:38.899Z,27.73
2018-09-03T07:35:06.042Z,28.40
2018-09-03T07:37:33.176Z,28.38
2018-09-03T07:40:00.358Z,25.55
2018-09-03T07:42:27.524Z,25.92
2018-09-03T07:44:54.683Z,25.50
2018-09-03T07:47:21.853Z,27.37
2018-09-03T07:49:49.004Z,24.50
2018-09-03T07:52:16.125Z,27.95
2018-09-03T07:54:43.253Z,25.02
2018-09-03T07:57:10.388Z,25.45
2018-09-03T07:59:37.526Z,22.73
2018-09-03T08:02:05.135Z,21.90
2018-09-03T08:04:32.284Z,23.90
2018-09-03T08:06:59.443Z,24.02
2018-09-03T08:09:26.621Z,24.32
2018-09-03T08:11:53.785Z,22.48
2018-09-03T08:14:20.952Z,24.27
2018-09-03T08:16:48.073Z,23.77
2018-09-03T08:19:15.199Z,24.63
2018-09-03T08:21:42.333Z,24.72
2018-09-03T08:24:09.504Z,26.15
2018-09-03T08:26:36.648Z,27.15
2018-09-03T08:29:03.824Z,26.05
2018-09-03T08:31:31.012Z,27.15
2018-09-03T08:33:58.136Z,25.85
2018-09-03T08:36:25.285Z,25.72
2018-09-03T08:38:52.433Z,25.12
2018-09-03T08:41:19.556Z,24.67
2018-09-03T08:43:46.731Z,22.90
2018-09-03T08:46:14.369Z,24.95
2018-09-03T08:48:41.532Z,24.52
2018-09-03T08:51:08.694Z,25.27
2018-09-03T08:53:35.897Z,24.07
2018-09-03T08:56:03.117Z,24.15
2018-09-03T08:58:30.298Z,23.75
2018-09-03T09:00:57.438Z,23.07
2018-09-03T09:03:30.445Z,22.93
2018-09-03T09:05:57.586Z,26.75
2018-09-03T09:08:25.145Z,24.20
2018-09-03T09:10:52.255Z,22.00
2018-09-03T09:13:19.580Z,25.65
2018-09-03T09:15:46.748Z,23.22
2018-09-03T09:18:14.180Z,24.12
2018-09-03T09:20:41.424Z,23.95
2018-09-03T09:23:08.593Z,25.92
2018-09-03T09:25:35.857Z,25.90
2018-09-03T09:28:03.108Z,28.20
2018-09-03T09:30:30.264Z,24.95
2018-09-03T09:32:57.385Z,24.25
2018-09-03T09:35:24.539Z,26.73
2018-09-03T09:37:51.640Z,28.00
2018-09-03T09:40:18.796Z,27.55
2018-09-03T09:42:45.997Z,24.82
2018-09-03T09:45:13.184Z,29.27
2018-09-03T09:47:40.309Z,28.98
2018-09-03T09:50:07.444Z,26.95
2018-09-03T09:52:34.619Z,28.10
2018-09-03T09:55:01.967Z,28.73
2018-09-03T09:57:29.108Z,25.02
2018-09-03T09:59:56.236Z,28.42
2018-09-03T10:02:23.387Z,25.90
2018-09-03T10:04:50.551Z,28.92
2018-09-03T10:07:17.692Z,28.10
2018-09-03T10:09:44.878Z,25.27
2018-09-03T10:12:12.271Z,26.65
2018-09-03T10:14:39.441Z,25.48
2018-09-03T10:17:06.579Z,26.05
2018-09-03T10:19:33.705Z,23.30
2018-09-03T10:22:00.865Z,25.57
2018-09-03T10:24:27.994Z,23.75
2018-09-03T10:26:55.146Z,24.63
2018-09-03T10:29:22.313Z,23.87
2018-09-03T10:31:49.504Z,26.42
2018-09-03T10:34:16.629Z,26.25
2018-09-03T10:36:43.766Z,26.97
2018-09-03T10:39:10.932Z,26.23
2018-09-03T10:41:38.059Z,24.20
2018-09-03T10:44:05.320Z,26.05
2018-09-03T10:46:32.668Z,26.73
2018-09-03T10:48:59.793Z,27.82
2018-09-03T10:51:26.945Z,27.45
2018-09-03T10:53:54.069Z,26.62
2018-09-03T10:56:21.224Z,28.70
2018-09-03T10:58:48.345Z,25.15
2018-09-03T11:01:15.681Z,25.90
2018-09-03T11:03:42.848Z,25.45
2018-09-03T11:06:10.234Z,27.40
2018-09-03T11:08:37.344Z,27.80
2018-09-03T11:11:04.518Z,23.52
2018-09-03T11:13:31.665Z,25.02
2018-09-03T11:15:58.812Z,28.45
2018-09-03T11:18:27.469Z,25.55
2018-09-03T11:20:54.605Z,25.75
2018-09-03T11:23:21.760Z,21.82
2018-09-03T11:25:48.950Z,20.60
2018-09-03T11:28:16.154Z,24.92
2018-09-03T11:30:43.336Z,24.10
2018-09-03T11:33:10.480Z,22.48
2018-09-03T11:35:37.618Z,24.92
2018-09-03T11:38:04.759Z,24.87
2018-09-03T11:40:31.884Z,23.62
2018-09-03T11:42:59.032Z,23.83
2018-09-03T11:45:26.188Z,24.30
2018-09-03T11:47:53.317Z,21.37
2018-09-03T11:50:20.713Z,22.22
2018-09-03T11:52:47.890Z,22.17
2018-09-03T11:55:15.280Z,23.85
2018-09-03T11:57:42.738Z,21.90
2018-09-03T12:00:14.304Z,23.12
2018-09-03T12:02:41.480Z,22.40
2018-09-03T12:05:09.300Z,22.35
2018-09-03T12:07:36.496Z,22.70
2018-09-03T12:10:03.780Z,20.85
2018-09-03T12:12:30.964Z,24.70
2018-09-03T12:15:01.198Z,21.90
2018-09-03T12:17:28.320Z,24.92
2018-09-03T12:19:55.440Z,26.02
2018-09-03T12:22:22.584Z,26.60
2018-09-03T12:24:49.701Z,24.40
2018-09-03T12:27:16.848Z,25.82
2018-09-03T12:29:43.967Z,24.47
2018-09-03T12:32:11.376Z,25.62
2018-09-03T12:34:38.520Z,26.93
2018-09-03T12:37:05.721Z,28.42
2018-09-03T12:39:32.838Z,29.30
2018-09-03T12:41:59.997Z,27.70
2018-09-03T12:44:27.147Z,27.55
2018-09-03T12:46:54.258Z,29.63
2018-09-03T12:49:21.400Z,30.68
2018-09-03T12:51:48.556Z,31.65
2018-09-03T12:54:15.676Z,32.17
2018-09-03T12:56:42.840Z,34.55
2018-09-03T12:59:09.958Z,33.25
2018-09-03T13:01:37.108Z,32.88
2018-09-03T13:04:04.302Z,35.10
2018-09-03T13:06:31.472Z,29.48
2018-09-03T13:08:58.611Z,30.52
2018-09-03T13:11:25.745Z,26.65
2018-09-03T13:13:52.904Z,26.20
2018-09-03T13:16:20.030Z,29.65
2018-09-03T13:18:47.346Z,25.88
2018-09-03T13:21:14.452Z,23.70
2018-09-03T13:23:41.943Z,21.77
2018-09-03T13:26:09.108Z,22.73
2018-09-03T13:28:36.253Z,21.50
2018-09-03T13:31:03.420Z,20.90
2018-09-03T13:33:30.589Z,22.15
2018-09-03T13:35:57.750Z,20.23
2018-09-03T13:38:24.882Z,21.35
2018-09-03T13:40:52.077Z,20.17
2018-09-03T13:43:19.217Z,18.73
2018-09-03T13:45:46.357Z,18.12
2018-09-03T13:48:13.562Z,19.60
2018-09-03T13:50:40.699Z,20.35
2018-09-03T13:53:07.833Z,17.95
2018-09-03T13:55:35.023Z,18.55
2018-09-03T13:58:02.213Z,19.80
2018-09-03T14:00:29.360Z,17.25
2018-09-03T14:02:56.520Z,17.67
2018-09-03T14:05:23.692Z,17.10
2018-09-03T14:07:50.856Z,18.37
2018-09-03T14:10:17.973Z,17.80
2018-09-03T14:12:46.906Z,20.17
2018-09-03T14:15:14.049Z,18.70
2018-09-03T14:17:41.235Z,19.30
2018-09-03T14:20:08.571Z,21.00
2018-09-03T14:22:35.654Z,21.00
2018-09-03T14:25:02.821Z,20.70
2018-09-03T14:27:29.962Z,22.80
2018-09-03T14:29:57.120Z,24.60
2018-09-03T14:32:24.269Z,24.67
2018-09-03T14:34:51.427Z,22.98
2018-09-03T14:37:18.620Z,24.30
2018-09-03T14:39:45.813Z,25.12
2018-09-03T14:42:12.960Z,26.95
2018-09-03T14:44:40.149Z,23.05
2018-09-03T14:47:07.322Z,25.25
2018-09-03T14:49:34.567Z,24.55
2018-09-03T14:52:01.642Z,23.40
2018-09-03T14:54:28.787Z,22.93
2018-09-03T14:56:55.955Z,20.70
2018-09-03T14:59:23.116Z,20.60
2018-09-03T15:01:50.227Z,20.80
2018-09-03T15:04:17.574Z,20.20
2018-09-03T15:06:44.589Z,20.20
2018-09-03T15:09:11.926Z,20.30
2018-09-03T15:11:39.384Z,21.70
2018-09-03T15:14:06.568Z,18.87
2018-09-03T15:16:34.184Z,18.92
2018-09-03T15:19:02.774Z,21.00
2018-09-03T15:21:29.977Z,19.98
2018-09-03T15:23:57.116Z,21.55
2018-09-03T15:26:24.278Z,20.35
2018-09-03T15:28:51.780Z,22.48
2018-09-03T15:31:18.947Z,23.50
2018-09-03T15:33:46.072Z,19.75
2018-09-03T15:36:13.428Z,20.17
2018-09-03T15:38:40.573Z,21.35
2018-09-03T15:41:08.144Z,20.02
2018-09-03T15:43:35.264Z,23.25
2018-09-03T15:46:02.425Z,21.68
2018-09-03T15:48:29.772Z,23.07
2018-09-03T15:50:56.893Z,20.75
2018-09-03T15:53:24.745Z,24.47
2018-09-03T15:55:51.926Z,21.33
2018-09-03T15:58:19.092Z,22.40
2018-09-03T16:00:46.308Z,22.90
2018-09-03T16:03:13.453Z,23.05
2018-09-03T16:05:40.612Z,24.65
2018-09-03T16:08:07.792Z,24.35
2018-09-03T16:10:34.940Z,22.10
2018-09-03T16:13:02.056Z,22.95
2018-09-03T16:15:29.184Z,24.00
2018-09-03T16:17:56.348Z,23.02
2018-09-03T16:20:23.514Z,22.90
2018-09-03T16:22:50.659Z,21.12
2018-09-03T16:25:17.894Z,26.85
2018-09-03T16:27:45.125Z,22.22
2018-09-03T16:30:12.228Z,20.90
2018-09-03T16:32:39.353Z,23.07
2018-09-03T16:35:06.541Z,23.73
2018-09-03T16:37:33.717Z,23.60
2018-09-03T16:40:00.888Z,22.45
2018-09-03T16:42:28.039Z,24.77
2018-09-03T16:44:55.176Z,23.65
2018-09-03T16:47:22.321Z,23.30
2018-09-03T16:49:49.521Z,22.70
2018-09-03T16:52:16.748Z,25.08
2018-09-03T16:54:43.876Z,22.40
2018-09-03T16:57:11.041Z,26.93
2018-09-03T16:59:38.176Z,23.75
2018-09-03T17:02:05.364Z,22.65
2018-09-03T17:04:32.548Z,23.42
2018-09-03T17:06:59.708Z,27.07
2018-09-03T17:09:26.868Z,24.80
2018-09-03T17:11:54.021Z,25.12
2018-09-03T17:14:21.204Z,25.80
2018-09-03T17:16:48.354Z,22.95
2018-09-03T17:19:15.513Z,24.52
2018-09-03T17:21:42.672Z,24.25
2018-09-03T17:24:09.796Z,24.37
2018-09-03T17:26:36.948Z,28.95
2018-09-03T17:29:04.209Z,24.72
2018-09-03T17:31:31.368Z,26.85
2018-09-03T17:33:58.524Z,27.30
2018-09-03T17:36:25.669Z,26.90
2018-09-03T17:38:52.824Z,29.40
2018-09-03T17:41:19.980Z,25.43
2018-09-03T17:43:47.246Z,25.20
2018-09-03T17:46:14.412Z,26.93
2018-09-03T17:48:41.604Z,19.20
2018-09-03T17:51:08.772Z,23.42
2018-09-03T17:53:35.915Z,23.47
2018-09-03T17:56:03.092Z,21.97
2018-09-03T17:58:30.269Z,20.32
2018-09-03T18:00:57.445Z,21.97
2018-09-03T18:03:24.644Z,22.95
2018-09-03T18:05:51.817Z,22.90
2018-09-03T18:08:19.047Z,23.27
2018-09-03T18:10:46.203Z,24.37
2018-09-03T18:13:13.376Z,24.80
2018-09-03T18:15:40.532Z,28.35
2018-09-03T18:18:07.817Z,25.17
2018-09-03T18:20:34.973Z,21.82
2018-09-03T18:23:02.156Z,23.55
2018-09-03T18:25:29.402Z,23.50
2018-09-03T18:27:56.577Z,28.02
2018-09-03T18:30:23.830Z,28.05
2018-09-03T18:32:50.991Z,27.30
2018-09-03T18:35:18.264Z,28.67
2018-09-03T18:37:45.385Z,26.20
2018-09-03T18:40:12.583Z,30.97
2018-09-03T18:42:39.720Z,28.25
2018-09-03T18:45:07.390Z,30.40
2018-09-03T18:47:34.638Z,30.60
2018-09-03T18:50:01.747Z,28.25
2018-09-03T18:52:29.164Z,31.25
2018-09-03T18:54:56.292Z,24.72
2018-09-03T18:57:23.466Z,33.05
2018-09-03T18:59:50.692Z,25.77
2018-09-03T19:02:17.848Z,24.47
2018-09-03T19:04:45.005Z,22.87
2018-09-03T19:07:12.125Z,28.25
2018-09-03T19:09:39.442Z,27.37
2018-09-03T19:12:06.565Z,23.62
2018-09-03T19:14:33.896Z,26.95
2018-09-03T19:17:01.057Z,31.07
2018-09-03T19:19:28.388Z,28.07
2018-09-03T19:21:55.666Z,27.93
2018-09-03T19:24:22.845Z,26.35
2018-09-03T19:26:49.964Z,28.85
2018-09-03T19:29:17.210Z,26.85
2018-09-03T19:31:44.364Z,29.37
2018-09-03T19:34:11.675Z,31.17
2018-09-03T19:36:38.882Z,34.15
2018-09-03T19:39:06.003Z,36.83
2018-09-03T19:41:33.288Z,29.00
2018-09-03T19:44:00.447Z,31.60
2018-09-03T19:46:27.616Z,31.35
2018-09-03T19:48:54.790Z,30.85
2018-09-03T19:51:22.160Z,34.80
2018-09-03T19:53:49.283Z,31.80
2018-09-03T19:56:16.421Z,33.20
2018-09-03T19:58:43.556Z,31.05
2018-09-03T20:01:10.704Z,32.95
2018-09-03T20:03:37.829Z,31.80
2018-09-03T20:06:05.004Z,32.30
2018-09-03T20:08:32.861Z,31.82
2018-09-03T20:11:00.046Z,30.85
2018-09-03T20:13:27.193Z,30.05
2018-09-03T20:15:54.402Z,32.03
2018-09-03T20:18:21.569Z,29.67
2018-09-03T20:20:48.720Z,31.73
2018-09-03T20:23:15.869Z,28.70
2018-09-03T20:25:43.022Z,25.10
2018-09-03T20:28:10.137Z,25.88
2018-09-03T20:30:37.363Z,25.55
2018-09-03T20:33:04.537Z,21.30
2018-09-03T20:35:31.695Z,24.10
2018-09-03T20:37:58.866Z,22.40
2018-09-03T20:40:26.022Z,24.63
2018-09-03T20:42:53.320Z,25.95
2018-09-03T20:45:20.630Z,24.87
2018-09-03T20:47:47.983Z,26.33
2018-09-03T20:50:15.121Z,25.02
2018-09-03T20:52:42.243Z,26.30
2018-09-03T20:55:09.433Z,23.05
2018-09-03T20:57:36.595Z,24.30
2018-09-03T21:00:04.613Z,24.72
2018-09-03T21:02:31.748Z,27.15
2018-09-03T21:04:58.944Z,25.12
2018-09-03T21:07:26.113Z,24.25
2018-09-03T21:09:53.237Z,25.60
2018-09-03T21:12:20.388Z,26.82
2018-09-03T21:14:47.512Z,26.10
2018-09-03T21:17:14.656Z,27.35
2018-09-03T21:19:41.809Z,28.97
2018-09-03T21:22:08.952Z,27.73
2018-09-03T21:24:36.100Z,29.93
2018-09-03T21:27:03.622Z,27.27
2018-09-03T21:29:30.869Z,24.87
2018-09-03T21:31:58.054Z,28.17
2018-09-03T21:34:25.168Z,30.72
2018-09-03T21:36:52.346Z,29.47
2018-09-03T21:39:19.481Z,29.67
2018-09-03T21:41:46.663Z,27.98
2018-09-03T21:44:13.837Z,27.97
2018-09-03T21:46:41.039Z,28.97
2018-09-03T21:49:08.376Z,27.17
2018-09-03T21:51:35.513Z,26.80
2018-09-03T21:54:02.693Z,22.62
2018-09-03T21:56:29.859Z,27.43
2018-09-03T21:58:57.012Z,27.30
2018-09-03T22:01:24.208Z,29.90
2018-09-03T22:03:51.315Z,31.13
2018-09-03T22:06:18.488Z,26.42
2018-09-03T22:08:45.628Z,28.17
2018-09-03T22:11:12.813Z,29.37
2018-09-03T22:13:39.921Z,30.63
2018-09-03T22:16:07.919Z,26.87
2018-09-03T22:18:35.530Z,31.10
2018-09-03T22:21:02.724Z,28.67
2018-09-03T22:23:29.887Z,28.30
2018-09-03T22:25:57.056Z,32.67
2018-09-03T22:28:24.176Z,28.73
2018-09-03T22:30:51.313Z,30.13
2018-09-03T22:33:18.453Z,30.10
2018-09-03T22:35:45.592Z,27.27
2018-09-03T22:38:12.996Z,30.82
2018-09-03T22:40:40.116Z,26.20
2018-09-03T22:43:07.263Z,31.03
2018-09-03T22:45:34.445Z,29.63
2018-09-03T22:48:01.613Z,31.53
2018-09-03T22:50:28.760Z,32.20
2018-09-03T22:52:55.904Z,32.70
2018-09-03T22:55:23.044Z,30.52
2018-09-03T22:57:50.204Z,29.63
2018-09-03T23:00:17.351Z,29.80
2018-09-03T23:02:46.127Z,30.52
2018-09-03T23:05:13.268Z,32.70
2018-09-03T23:07:40.416Z,28.67
2018-09-03T23:10:07.894Z,30.73
2018-09-03T23:12:35.109Z,28.80
2018-09-03T23:15:02.301Z,30.60
2018-09-03T23:17:29.473Z,25.43
2018-09-03T23:19:56.628Z,29.07
2018-09-03T23:22:23.744Z,32.88
2018-09-03T23:24:50.883Z,33.38
2018-09-03T23:27:18.009Z,29.95
2018-09-03T23:29:45.180Z,30.77
2018-09-03T23:32:12.336Z,33.60
2018-09-03T23:34:39.488Z,34.20
2018-09-03T23:37:06.666Z,31.40
2018-09-03T23:39:33.814Z,35.20
2018-09-03T23:42:00.979Z,32.23
2018-09-03T23:44:28.097Z,34.30
2018-09-03T23:46:55.220Z,33.80
2018-09-03T23:49:22.363Z,34.63
2018-09-03T23:51:49.508Z,37.93
2018-09-03T23:54:16.651Z,31.63
2018-09-03T23:56:43.780Z,36.53
2018-09-03T23:59:10.956Z,37.53
